createdAt,value
2022-11-08T00:00:45.133Z,15.40
2022-11-08T00:03:13.172Z,16.70
2022-11-08T00:06:01.470Z,14.70
2022-11-08T00:08:48.331Z,15.80
2022-11-08T00:11:35.218Z,14.70
2022-11-08T00:14:03.796Z,15.40
2022-11-08T00:16:31.536Z,16.60
2022-11-08T00:18:59.782Z,15.00
2022-11-08T00:21:27.525Z,14.80
2022-11-08T00:23:55.574Z,15.00
2022-11-08T00:26:23.382Z,15.10
2022-11-08T00:28:52.787Z,14.90
2022-11-08T00:31:20.488Z,15.50
2022-11-08T00:33:48.428Z,16.60
2022-11-08T00:36:16.443Z,16.60
2022-11-08T00:38:44.979Z,15.10
2022-11-08T00:41:14.264Z,15.40
2022-11-08T00:43:44.335Z,15.70
2022-11-08T00:46:14.383Z,15.00
2022-11-08T00:48:42.200Z,14.80
2022-11-08T00:51:12.996Z,16.20
2022-11-08T00:53:43.091Z,14.30
2022-11-08T00:56:14.056Z,14.50
2022-11-08T00:58:42.069Z,13.50
2022-11-08T01:01:17.793Z,15.60
2022-11-08T01:03:48.620Z,14.90
2022-11-08T01:06:19.429Z,14.10
2022-11-08T01:08:49.892Z,14.20
2022-11-08T01:11:21.761Z,13.30
2022-11-08T01:13:55.769Z,14.90
2022-11-08T01:16:26.997Z,14.10
2022-11-08T01:18:58.476Z,14.40
2022-11-08T01:21:28.779Z,15.10
2022-11-08T01:23:58.801Z,13.60
2022-11-08T01:26:30.346Z,14.00
2022-11-08T01:29:00.600Z,14.00
2022-11-08T01:31:30.864Z,14.30
2022-11-08T01:34:01.412Z,15.40
2022-11-08T01:36:30.397Z,13.90
2022-11-08T01:38:58.416Z,13.10
2022-11-08T01:41:29.137Z,13.60
2022-11-08T01:44:02.680Z,13.80
2022-11-08T01:49:25.158Z,13.40
2022-11-08T01:52:03.061Z,12.80
2022-11-08T01:54:38.038Z,14.50
2022-11-08T01:57:15.076Z,13.40
2022-11-08T01:59:47.879Z,13.70
2022-11-08T02:02:18.058Z,13.90
2022-11-08T02:04:46.051Z,14.40
2022-11-08T02:07:17.676Z,14.30
2022-11-08T02:09:48.819Z,12.40
2022-11-08T02:12:21.748Z,13.90
2022-11-08T02:14:49.708Z,14.30
2022-11-08T02:17:19.712Z,13.50
2022-11-08T02:19:51.199Z,13.40
2022-11-08T02:22:28.995Z,14.10
2022-11-08T02:25:00.956Z,15.00
2022-11-08T02:27:28.718Z,13.40
2022-11-08T02:29:58.807Z,13.90
2022-11-08T02:32:26.598Z,13.00
2022-11-08T02:35:00.581Z,14.10
2022-11-08T02:37:30.700Z,13.30
2022-11-08T02:39:58.700Z,12.80
2022-11-08T02:42:26.665Z,13.50
2022-11-08T02:44:54.401Z,13.70
2022-11-08T02:47:24.874Z,13.60
2022-11-08T02:49:52.725Z,14.50
2022-11-08T02:52:20.680Z,14.30
2022-11-08T02:54:48.649Z,12.80
2022-11-08T02:57:16.357Z,14.00
2022-11-08T02:59:44.310Z,13.70
2022-11-08T03:02:12.382Z,13.10
2022-11-08T03:04:41.847Z,13.10
2022-11-08T03:07:11.853Z,13.90
2022-11-08T03:09:39.760Z,13.50
2022-11-08T03:12:07.805Z,14.60
2022-11-08T03:14:35.810Z,13.50
2022-11-08T03:17:06.913Z,13.60
2022-11-08T03:19:37.024Z,14.50
2022-11-08T03:22:04.994Z,14.10
2022-11-08T03:24:36.127Z,14.30
2022-11-08T03:27:06.654Z,14.30
2022-11-08T03:29:34.387Z,14.70
2022-11-08T03:32:02.336Z,13.70
2022-11-08T03:34:30.293Z,14.40
2022-11-08T03:36:59.821Z,14.80
2022-11-08T03:39:27.807Z,13.80
2022-11-08T03:41:55.519Z,13.50
2022-11-08T03:44:23.453Z,14.60
2022-11-08T03:46:51.156Z,14.50
2022-11-08T03:49:18.859Z,13.70
2022-11-08T03:51:49.255Z,14.90
2022-11-08T03:54:16.991Z,14.10
2022-11-08T03:56:46.878Z,14.90
2022-11-08T03:59:14.678Z,13.70
2022-11-08T04:01:44.972Z,13.40
2022-11-08T04:04:13.009Z,14.20
2022-11-08T04:06:40.734Z,14.70
2022-11-08T04:09:08.699Z,14.80
2022-11-08T04:11:55.086Z,14.00
2022-11-08T04:14:41.636Z,14.60
2022-11-08T04:17:09.314Z,15.20
2022-11-08T04:19:55.597Z,14.70
2022-11-08T04:22:23.349Z,15.30
2022-11-08T04:24:51.167Z,15.00
2022-11-08T04:27:19.033Z,14.90
2022-11-08T04:29:46.702Z,13.70
2022-11-08T04:32:14.683Z,15.00
2022-11-08T04:34:43.331Z,15.70
2022-11-08T04:37:13.159Z,15.00
2022-11-08T04:39:40.850Z,15.00
2022-11-08T04:42:08.864Z,15.30
2022-11-08T04:44:36.802Z,16.60
2022-11-08T04:47:04.828Z,15.30
2022-11-08T04:49:32.522Z,14.90
2022-11-08T04:52:00.219Z,14.60
2022-11-08T04:54:27.945Z,14.70
2022-11-08T04:56:55.854Z,15.30
2022-11-08T04:59:23.804Z,14.00
2022-11-08T05:01:51.813Z,15.30
2022-11-08T05:04:21.639Z,15.80
2022-11-08T05:06:49.363Z,15.20
2022-11-08T05:09:17.101Z,15.70
2022-11-08T05:11:44.891Z,15.50
2022-11-08T05:14:12.661Z,15.90
2022-11-08T05:16:40.653Z,15.70
2022-11-08T05:19:13.020Z,16.60
2022-11-08T05:22:00.581Z,16.80
2022-11-08T05:24:28.512Z,16.30
2022-11-08T05:26:56.228Z,15.40
2022-11-08T05:29:24.151Z,16.00
2022-11-08T05:31:53.654Z,15.70
2022-11-08T05:34:21.575Z,16.10
2022-11-08T05:36:49.472Z,14.60
2022-11-08T05:39:19.678Z,15.00
2022-11-08T05:41:47.762Z,15.80
2022-11-08T05:44:15.900Z,16.00
2022-11-08T05:46:43.856Z,15.90
2022-11-08T05:49:11.780Z,15.70
2022-11-08T05:51:39.712Z,17.70
2022-11-08T05:54:10.392Z,15.20
2022-11-08T05:56:38.301Z,15.00
2022-11-08T05:59:08.313Z,17.20
2022-11-08T06:01:36.058Z,17.30
2022-11-08T06:04:06.294Z,17.90
2022-11-08T06:06:36.381Z,17.20
2022-11-08T06:09:04.203Z,16.20
2022-11-08T06:11:32.208Z,17.90
2022-11-08T06:14:01.847Z,16.40
2022-11-08T06:16:29.861Z,17.60
2022-11-08T06:18:59.398Z,15.90
2022-11-08T06:21:27.910Z,16.80
2022-11-08T06:23:55.687Z,16.80
2022-11-08T06:26:26.063Z,16.80
2022-11-08T06:28:54.012Z,17.10
2022-11-08T06:31:22.810Z,17.60
2022-11-08T06:33:50.596Z,17.90
2022-11-08T06:36:18.677Z,17.60
2022-11-08T06:38:46.373Z,16.70
2022-11-08T06:41:20.197Z,16.50
2022-11-08T06:43:49.624Z,16.90
2022-11-08T06:46:17.607Z,17.40
2022-11-08T06:48:45.585Z,17.20
2022-11-08T06:51:14.405Z,16.70
2022-11-08T06:53:44.469Z,16.80
2022-11-08T06:56:12.816Z,16.80
2022-11-08T06:58:40.781Z,17.10
2022-11-08T07:01:10.788Z,17.20
2022-11-08T07:03:38.675Z,15.80
2022-11-08T07:06:08.509Z,17.40
2022-11-08T07:08:36.411Z,16.90
2022-11-08T07:11:04.871Z,17.50
2022-11-08T07:13:32.838Z,16.80
2022-11-08T07:16:02.845Z,17.60
2022-11-08T07:18:31.444Z,17.60
2022-11-08T07:21:03.555Z,17.40
2022-11-08T07:23:33.754Z,17.60
2022-11-08T07:26:09.006Z,17.10
2022-11-08T07:28:36.746Z,17.40
2022-11-08T07:31:07.795Z,18.30
2022-11-08T07:33:38.108Z,17.00
2022-11-08T07:36:06.075Z,17.50
2022-11-08T07:38:34.037Z,16.70
2022-11-08T07:41:04.442Z,18.70
2022-11-08T07:43:32.927Z,18.70
2022-11-08T07:46:04.065Z,17.60
2022-11-08T07:48:31.920Z,18.30
2022-11-08T07:51:01.946Z,17.90
2022-11-08T07:53:30.837Z,18.20
2022-11-08T07:55:58.810Z,17.70
2022-11-08T07:58:28.750Z,17.60
2022-11-08T08:01:03.468Z,16.90
2022-11-08T08:03:33.784Z,17.70
2022-11-08T08:06:03.788Z,18.50
2022-11-08T08:08:34.330Z,17.80
2022-11-08T08:11:05.287Z,17.60
2022-11-08T08:13:33.297Z,17.30
2022-11-08T08:16:03.547Z,16.70
2022-11-08T08:18:31.563Z,17.50
2022-11-08T08:21:01.940Z,17.60
2022-11-08T08:23:29.940Z,18.10
2022-11-08T08:25:57.920Z,17.30
2022-11-08T08:28:25.931Z,17.10
2022-11-08T08:30:53.892Z,16.10
2022-11-08T08:33:34.209Z,17.10
2022-11-08T08:36:04.819Z,16.60
2022-11-08T08:38:41.403Z,16.20
2022-11-08T08:41:13.291Z,16.50
2022-11-08T08:43:41.306Z,16.60
2022-11-08T08:46:11.369Z,16.20
2022-11-08T08:48:39.053Z,15.90
2022-11-08T08:51:09.695Z,15.80
2022-11-08T08:53:37.421Z,16.30
2022-11-08T08:56:08.415Z,15.60
2022-11-08T08:58:36.600Z,14.90
2022-11-08T09:04:06.600Z,14.10
2022-11-08T09:06:34.446Z,14.30
2022-11-08T09:09:04.469Z,13.10
2022-11-08T09:11:32.399Z,14.70
2022-11-08T09:14:00.123Z,12.70
2022-11-08T09:16:28.072Z,13.50
2022-11-08T09:18:56.023Z,13.50
2022-11-08T09:21:24.061Z,13.80
2022-11-08T09:23:52.057Z,14.60
2022-11-08T09:26:19.770Z,12.80
2022-11-08T09:28:47.478Z,14.30
2022-11-08T09:31:17.703Z,13.90
2022-11-08T09:33:49.588Z,13.00
2022-11-08T09:36:19.638Z,13.30
2022-11-08T09:38:47.342Z,14.20
2022-11-08T09:41:43.632Z,13.00
2022-11-08T09:44:27.576Z,13.00
2022-11-08T09:47:05.077Z,13.50
2022-11-08T09:50:05.549Z,12.40
2022-11-08T09:52:35.933Z,12.30
2022-11-08T09:55:38.413Z,12.60
2022-11-08T09:58:19.831Z,13.50
2022-11-08T10:00:53.009Z,12.40
2022-11-08T10:03:25.025Z,13.40
2022-11-08T10:05:58.765Z,13.40
2022-11-08T10:08:42.972Z,12.90
2022-11-08T10:11:28.458Z,13.40
2022-11-08T10:14:34.102Z,13.60
2022-11-08T10:17:25.244Z,12.90
2022-11-08T10:20:21.272Z,12.90
2022-11-08T10:23:10.412Z,12.40
2022-11-08T10:26:00.006Z,13.00
2022-11-08T10:28:43.375Z,11.90
2022-11-08T10:31:18.737Z,12.50
2022-11-08T10:33:59.439Z,11.80
2022-11-08T10:36:50.035Z,12.20
2022-11-08T10:39:30.394Z,12.20
2022-11-08T10:42:18.039Z,11.40
2022-11-08T10:44:48.348Z,10.30
2022-11-08T10:47:33.271Z,12.00
2022-11-08T10:50:04.460Z,11.40
2022-11-08T10:52:46.866Z,10.80
2022-11-08T10:55:40.470Z,11.80
2022-11-08T10:58:34.070Z,11.60
2022-11-08T11:01:14.374Z,12.10
2022-11-08T11:03:44.364Z,10.60
2022-11-08T11:06:21.416Z,11.50
2022-11-08T11:09:02.024Z,11.20
2022-11-08T11:11:33.022Z,11.00
2022-11-08T11:14:16.586Z,11.10
2022-11-08T11:16:58.470Z,12.20
2022-11-08T11:19:29.518Z,12.50
2022-11-08T11:22:12.119Z,11.10
2022-11-08T11:24:51.639Z,11.40
2022-11-08T11:27:41.799Z,11.40
2022-11-08T11:30:12.859Z,11.80
2022-11-08T11:32:56.421Z,11.70
2022-11-08T11:35:38.343Z,11.40
2022-11-08T11:38:20.146Z,10.50
2022-11-08T11:40:53.209Z,11.60
2022-11-08T11:43:36.049Z,10.70
2022-11-08T11:46:42.016Z,10.30
2022-11-08T11:49:22.255Z,10.70
2022-11-08T11:51:55.872Z,10.10
2022-11-08T11:54:35.910Z,10.30
2022-11-08T11:57:41.910Z,10.20
2022-11-08T12:00:15.795Z,9.80
2022-11-08T12:03:02.284Z,9.70
2022-11-08T12:06:01.616Z,10.50
2022-11-08T12:08:38.531Z,10.70
2022-11-08T12:11:50.150Z,10.60
2022-11-08T12:14:25.081Z,10.40
2022-11-08T12:17:41.078Z,9.80
2022-11-08T12:20:31.112Z,10.90
2022-11-08T12:23:11.174Z,11.40
2022-11-08T12:26:07.384Z,11.60
2022-11-08T12:28:52.919Z,12.00
2022-11-08T12:31:35.814Z,11.40
2022-11-08T12:34:38.577Z,11.40
2022-11-08T12:37:31.182Z,11.20
2022-11-08T12:39:58.855Z,10.20
2022-11-08T12:42:44.501Z,10.70
2022-11-08T12:45:36.043Z,9.70
2022-11-08T12:48:23.081Z,10.20
2022-11-08T12:51:26.325Z,10.80
2022-11-08T12:54:15.411Z,10.80
2022-11-08T12:56:48.513Z,11.00
2022-11-08T12:59:45.002Z,10.40
2022-11-08T13:02:26.832Z,10.00
2022-11-08T13:05:11.514Z,9.90
2022-11-08T13:08:14.698Z,10.00
2022-11-08T13:11:03.059Z,10.80
2022-11-08T13:13:51.027Z,10.50
2022-11-08T13:16:25.896Z,10.30
2022-11-08T13:18:58.207Z,9.80
2022-11-08T13:21:26.149Z,10.60
2022-11-08T13:24:06.683Z,10.20
2022-11-08T13:26:46.960Z,10.10
2022-11-08T13:29:27.551Z,10.60
2022-11-08T13:32:01.126Z,10.30
2022-11-08T13:34:52.735Z,11.50
2022-11-08T13:37:58.661Z,10.20
2022-11-08T13:40:40.709Z,10.60
2022-11-08T13:43:28.188Z,10.80
2022-11-08T13:46:17.476Z,11.20
2022-11-08T13:49:16.186Z,11.80
2022-11-08T13:51:46.862Z,10.70
2022-11-08T13:54:23.776Z,11.70
2022-11-08T13:56:58.573Z,10.80
2022-11-08T13:59:33.317Z,10.70
2022-11-08T14:02:15.250Z,10.30
2022-11-08T14:04:46.083Z,11.40
2022-11-08T14:07:44.158Z,11.20
2022-11-08T14:10:34.533Z,11.20
2022-11-08T14:13:11.579Z,11.70
2022-11-08T14:15:56.194Z,12.00
2022-11-08T14:18:35.154Z,11.20
2022-11-08T14:21:06.921Z,11.30
2022-11-08T14:23:42.220Z,11.50
2022-11-08T14:26:23.652Z,11.10
2022-11-08T14:28:54.248Z,11.20
2022-11-08T14:31:28.500Z,11.50
2022-11-08T14:33:59.281Z,11.60
2022-11-08T14:36:31.798Z,12.20
2022-11-08T14:39:12.418Z,11.40
2022-11-08T14:41:48.058Z,12.90
2022-11-08T14:44:19.518Z,12.40
2022-11-08T14:46:50.048Z,13.00
2022-11-08T14:49:33.948Z,13.00
2022-11-08T14:54:44.028Z,12.30
2022-11-08T14:57:35.630Z,12.50
2022-11-08T15:00:12.526Z,13.10
2022-11-08T15:02:48.829Z,11.80
2022-11-08T15:05:42.656Z,12.00
2022-11-08T15:08:35.085Z,13.00
2022-11-08T15:11:06.283Z,13.20
2022-11-08T15:13:50.638Z,14.40
2022-11-08T15:16:18.490Z,16.40
2022-11-08T15:18:51.898Z,14.20
2022-11-08T15:21:33.610Z,14.70
2022-11-08T15:24:12.982Z,13.00
2022-11-08T15:27:19.135Z,14.10
2022-11-08T15:30:01.702Z,15.10
2022-11-08T15:32:37.399Z,16.20
2022-11-08T15:35:22.415Z,15.30
2022-11-08T15:38:01.241Z,14.90
2022-11-08T15:40:38.013Z,15.40
2022-11-08T15:43:07.929Z,14.80
2022-11-08T15:45:37.984Z,16.10
2022-11-08T15:48:08.686Z,16.90
2022-11-08T15:50:41.048Z,17.30
2022-11-08T15:53:11.485Z,16.60
2022-11-08T15:55:57.057Z,17.80
2022-11-08T15:58:33.319Z,17.70
2022-11-08T16:01:04.973Z,22.00
2022-11-08T16:03:36.359Z,23.60
2022-11-08T16:06:04.393Z,23.90
2022-11-08T16:08:32.157Z,25.00
2022-11-08T16:11:03.003Z,25.60
2022-11-08T16:13:37.006Z,27.70
2022-11-08T16:16:13.293Z,23.40
2022-11-08T16:18:43.596Z,21.50
2022-11-08T16:21:14.463Z,19.00
2022-11-08T16:23:42.798Z,21.90
2022-11-08T16:26:18.089Z,21.70
2022-11-08T16:28:48.161Z,18.30
2022-11-08T16:31:18.979Z,18.90
2022-11-08T16:33:49.937Z,18.60
2022-11-08T16:36:27.925Z,17.30
2022-11-08T16:38:58.071Z,19.00
2022-11-08T16:41:26.642Z,19.50
2022-11-08T16:43:57.273Z,17.90
2022-11-08T16:46:25.239Z,17.50
2022-11-08T16:48:59.239Z,18.70
2022-11-08T16:51:30.543Z,19.30
2022-11-08T16:53:58.308Z,22.40
2022-11-08T16:56:26.272Z,23.10
2022-11-08T16:58:54.044Z,23.50
2022-11-08T17:01:29.507Z,21.70
2022-11-08T17:03:57.486Z,24.40
2022-11-08T17:06:25.611Z,22.60
2022-11-08T17:08:53.474Z,23.30
2022-11-08T17:11:25.202Z,20.20
2022-11-08T17:13:53.153Z,20.60
2022-11-08T17:16:21.244Z,22.10
2022-11-08T17:18:53.331Z,20.20
2022-11-08T17:24:21.205Z,18.90
2022-11-08T17:26:53.601Z,18.70
2022-11-08T17:29:21.518Z,18.80
2022-11-08T17:31:52.302Z,20.20
2022-11-08T17:34:20.105Z,20.80
2022-11-08T17:36:47.939Z,21.20
2022-11-08T17:39:15.966Z,19.10
2022-11-08T17:41:43.721Z,20.50
2022-11-08T17:44:14.670Z,20.00
2022-11-08T17:46:42.701Z,19.00
2022-11-08T17:49:10.770Z,19.80
2022-11-08T17:51:38.733Z,20.80
2022-11-08T17:54:06.481Z,19.70
2022-11-08T17:56:34.234Z,20.30
2022-11-08T17:59:04.275Z,18.50
2022-11-08T18:01:32.662Z,18.70
2022-11-08T18:04:01.232Z,22.40
2022-11-08T18:06:32.065Z,22.00
2022-11-08T18:08:59.871Z,20.60
2022-11-08T18:11:27.641Z,18.80
2022-11-08T18:13:58.479Z,21.00
2022-11-08T18:16:26.415Z,20.00
2022-11-08T18:18:54.213Z,20.90
2022-11-08T18:21:22.131Z,18.90
2022-11-08T18:23:52.860Z,18.50
2022-11-08T18:26:20.666Z,19.10
2022-11-08T18:28:51.472Z,18.00
2022-11-08T18:31:23.176Z,19.20
2022-11-08T18:33:50.886Z,20.60
2022-11-08T18:36:27.107Z,20.70
2022-11-08T18:39:01.261Z,20.10
2022-11-08T18:41:33.394Z,19.60
2022-11-08T18:44:05.969Z,19.40
2022-11-08T18:46:43.144Z,21.50
2022-11-08T18:49:13.889Z,19.50
2022-11-08T18:51:41.713Z,21.20
2022-11-08T18:54:09.496Z,19.00
2022-11-08T18:56:37.466Z,20.50
2022-11-08T18:59:05.756Z,18.50
2022-11-08T19:01:33.603Z,21.20
2022-11-08T19:04:04.270Z,20.90
2022-11-08T19:06:32.031Z,19.90
2022-11-08T19:08:59.819Z,19.50
2022-11-08T19:11:30.587Z,21.00
2022-11-08T19:14:02.202Z,18.90
2022-11-08T19:16:32.685Z,18.10
2022-11-08T19:19:03.082Z,18.90
2022-11-08T19:21:35.505Z,18.70
2022-11-08T19:24:10.700Z,18.80
2022-11-08T19:26:39.463Z,19.50
2022-11-08T19:29:10.778Z,18.70
2022-11-08T19:31:39.131Z,19.90
2022-11-08T19:34:07.074Z,18.20
2022-11-08T19:36:43.590Z,17.40
2022-11-08T19:39:14.565Z,19.70
2022-11-08T19:41:45.378Z,19.20
2022-11-08T19:44:13.143Z,19.80
2022-11-08T19:46:42.824Z,19.10
2022-11-08T19:49:12.436Z,19.70
2022-11-08T19:51:40.258Z,19.10
2022-11-08T19:54:12.723Z,20.30
2022-11-08T19:59:28.398Z,20.40
2022-11-08T20:01:56.323Z,19.20
2022-11-08T20:04:26.934Z,20.10
2022-11-08T20:06:54.837Z,19.10
2022-11-08T20:09:27.359Z,18.80
2022-11-08T20:12:00.406Z,18.90
2022-11-08T20:14:28.142Z,19.30
2022-11-08T20:16:55.939Z,19.50
2022-11-08T20:19:23.743Z,18.70
2022-11-08T20:21:57.147Z,18.00
2022-11-08T20:24:24.891Z,19.50
2022-11-08T20:26:52.609Z,19.20
2022-11-08T20:29:20.434Z,19.50
2022-11-08T20:31:53.352Z,19.90
2022-11-08T20:34:21.103Z,19.40
2022-11-08T20:36:51.937Z,18.40
2022-11-08T20:39:19.677Z,19.30
2022-11-08T20:41:47.672Z,19.20
2022-11-08T20:44:17.403Z,19.40
2022-11-08T20:46:45.141Z,19.00
2022-11-08T20:49:12.870Z,18.60
2022-11-08T20:51:40.640Z,18.30
2022-11-08T20:54:12.138Z,18.80
2022-11-08T20:56:39.866Z,18.70
2022-11-08T20:59:09.287Z,19.20
2022-11-08T21:01:40.425Z,19.50
2022-11-08T21:04:12.314Z,18.50
2022-11-08T21:06:40.085Z,19.60
2022-11-08T21:09:32.521Z,20.60
2022-11-08T21:11:58.464Z,19.30
2022-11-08T21:14:26.300Z,18.40
2022-11-08T21:19:41.973Z,17.90
2022-11-08T21:22:15.375Z,16.70
2022-11-08T21:24:47.941Z,18.00
2022-11-08T21:27:17.880Z,18.20
2022-11-08T21:29:45.713Z,17.50
2022-11-08T21:32:14.041Z,18.20
2022-11-08T21:34:47.911Z,18.30
2022-11-08T21:37:16.075Z,17.10
2022-11-08T21:39:44.217Z,17.90
2022-11-08T21:42:12.365Z,17.30
2022-11-08T21:44:42.890Z,17.40
2022-11-08T21:47:14.064Z,17.40
2022-11-08T21:49:42.009Z,16.60
2022-11-08T21:52:10.132Z,19.20
2022-11-08T21:54:42.030Z,17.50
2022-11-08T21:57:10.177Z,17.30
2022-11-08T21:59:38.548Z,18.50
2022-11-08T22:02:10.386Z,16.90
2022-11-08T22:04:38.350Z,17.40
2022-11-08T22:07:06.565Z,17.10
2022-11-08T22:09:36.448Z,18.00
2022-11-08T22:12:04.554Z,17.70
2022-11-08T22:14:32.642Z,17.40
2022-11-08T22:17:00.833Z,16.70
2022-11-08T22:19:29.023Z,17.30
2022-11-08T22:22:00.023Z,17.30
2022-11-08T22:24:28.176Z,17.90
2022-11-08T22:26:58.171Z,17.00
2022-11-08T22:29:26.348Z,17.70
2022-11-08T22:31:58.375Z,17.40
2022-11-08T22:34:26.389Z,17.30
2022-11-08T22:36:54.441Z,16.70
2022-11-08T22:39:26.711Z,16.20
2022-11-08T22:41:57.800Z,16.20
2022-11-08T22:44:26.218Z,17.30
2022-11-08T22:46:54.135Z,16.50
2022-11-08T22:49:22.296Z,15.70
2022-11-08T22:51:50.184Z,15.50
2022-11-08T22:54:18.123Z,17.00
2022-11-08T22:56:46.078Z,16.30
2022-11-08T22:59:17.774Z,16.10
2022-11-08T23:01:46.007Z,16.20
2022-11-08T23:04:17.905Z,15.10
2022-11-08T23:06:45.895Z,16.40
2022-11-08T23:09:14.003Z,16.40
2022-11-08T23:12:00.424Z,16.40
2022-11-08T23:14:47.277Z,15.90
2022-11-08T23:17:15.390Z,15.80
2022-11-08T23:20:05.676Z,16.60
2022-11-08T23:22:52.475Z,15.90
2022-11-08T23:25:23.884Z,15.00
2022-11-08T23:28:10.674Z,15.50
2022-11-08T23:31:01.973Z,15.00
2022-11-08T23:33:29.810Z,14.60
2022-11-08T23:36:14.317Z,15.30
2022-11-08T23:38:44.631Z,15.50
2022-11-08T23:41:31.900Z,15.90
2022-11-08T23:44:18.601Z,15.50
2022-11-08T23:46:46.474Z,15.10
2022-11-08T23:49:14.308Z,13.90
2022-11-08T23:51:42.042Z,15.60
2022-11-08T23:54:10.148Z,15.80
2022-11-08T23:56:38.064Z,15.00
2022-11-08T23:59:10.865Z,13.90
